Coolawanyah Airport


Codes: YCWY/COY
Name: Coolawanyah Airport
City: Coolawanyah Station
Country: Australia
Elevation: 1195 ft.
Wikipedia:

Photos at Coolawanyah Airport


   Photos courtesy of SpottingLog. You can add your own sightings and photos by signing up for a free trial today.



No photos found.

Weather at Coolawanyah Airport


Time (UTC)DescriptionTempratureWindCloud coverageVisibilityPressureHumidity
26-Jun-2024 00:00Broken Clouds18°C7 mph, N68%10000m1014hPa75%
26-Jun-2024 03:00Overcast Clouds20°C11 mph, N88%10000m1014hPa60%
26-Jun-2024 06:00Overcast Clouds23°C9 mph, N97%10000m1012hPa44%
26-Jun-2024 09:00Overcast Clouds23°C16 mph, N96%10000m1012hPa41%
26-Jun-2024 12:00Overcast Clouds20°C13 mph, N87%10000m1014hPa55%
26-Jun-2024 15:00Broken Clouds18°C9 mph, N79%10000m1015hPa68%
26-Jun-2024 18:00Overcast Clouds19°C9 mph, N86%10000m1014hPa66%
26-Jun-2024 21:00Overcast Clouds19°C7 mph, N100%10000m1013hPa68%
27-Jun-2024 00:00Overcast Clouds19°C7 mph, N100%10000m1014hPa70%
27-Jun-2024 03:00Light Rain20°C9 mph, NW100%10000m1014hPa69%
27-Jun-2024 06:00Light Rain19°C13 mph, N100%10000m1012hPa74%
27-Jun-2024 09:00Light Rain20°C16 mph, NW43%10000m1011hPa74%
27-Jun-2024 12:00Light Rain18°C9 mph, NW30%10000m1013hPa92%
27-Jun-2024 15:00Light Rain17°C7 mph, NW3%10000m1013hPa94%
27-Jun-2024 18:00Clear Sky17°C7 mph, W2%10000m1012hPa92%
27-Jun-2024 21:00Clear Sky16°C7 mph, SW1%10000m1012hPa91%
28-Jun-2024 00:00Few Clouds18°C7 mph, SW17%10000m1014hPa80%
28-Jun-2024 03:00Broken Clouds20°C13 mph, W67%10000m1014hPa59%
28-Jun-2024 06:00Broken Clouds23°C20 mph, W53%10000m1011hPa43%
28-Jun-2024 09:00Scattered Clouds23°C18 mph, W29%10000m1011hPa33%
28-Jun-2024 12:00Few Clouds18°C13 mph, SW15%10000m1014hPa63%
28-Jun-2024 15:00Clear Sky17°C9 mph, SW0%10000m1015hPa63%
28-Jun-2024 18:00Clear Sky15°C9 mph, SW0%10000m1015hPa67%
28-Jun-2024 21:00Clear Sky14°C7 mph, SW0%10000m1015hPa77%
29-Jun-2024 00:00Clear Sky15°C7 mph, SW0%10000m1017hPa72%
29-Jun-2024 03:00Clear Sky20°C9 mph, SW0%10000m1016hPa47%
29-Jun-2024 06:00Clear Sky23°C9 mph, SW0%10000m1014hPa37%
29-Jun-2024 09:00Clear Sky22°C11 mph, S0%10000m1014hPa37%
29-Jun-2024 12:00Clear Sky18°C11 mph, S0%10000m1016hPa43%
29-Jun-2024 15:00Clear Sky17°C9 mph, S0%10000m1017hPa50%
29-Jun-2024 18:00Clear Sky15°C9 mph, S0%10000m1017hPa61%
29-Jun-2024 21:00Clear Sky13°C7 mph, SE0%10000m1017hPa72%
30-Jun-2024 00:00Clear Sky14°C9 mph, SE0%10000m1019hPa66%
30-Jun-2024 03:00Clear Sky21°C16 mph, SE0%10000m1018hPa32%
30-Jun-2024 06:00Clear Sky23°C11 mph, SE0%10000m1015hPa22%
30-Jun-2024 09:00Clear Sky22°C11 mph, SE0%10000m1016hPa24%
30-Jun-2024 12:00Clear Sky19°C9 mph, SE0%10000m1018hPa35%
30-Jun-2024 15:00Clear Sky18°C20 mph, SE0%10000m1019hPa43%
30-Jun-2024 18:00Clear Sky15°C22 mph, SE0%10000m1018hPa58%
30-Jun-2024 21:00Clear Sky13°C20 mph, SE0%10000m1018hPa62%